Terminal Aerodrome Forecast
Issued by NWS

Current Version | Previous Version | Text Only | Print | Product List | Glossary On
Versions: 1 2 3 4 5 6 7 8 9 10 11 12
000
FTUS41 KAKQ 241742
TAFPHF
TAF
KPHF 241742Z 2418/2518 08008KT P6SM SKC
     FM242300 VRB04KT P6SM SKC
     FM251600 20008KT P6SM SCT050 SCT250=

USA.gov is the U.S. government's official web portal to all federal, state and local government web resources and services.